createdAt,value
2018-07-15T00:00:24.905Z,9.37
2018-07-15T00:02:54.088Z,9.93
2018-07-15T00:05:23.340Z,10.70
2018-07-15T00:07:52.755Z,11.70
2018-07-15T00:10:21.991Z,11.83
2018-07-15T00:12:51.193Z,12.67
2018-07-15T00:15:20.351Z,11.43
2018-07-15T00:17:49.564Z,11.43
2018-07-15T00:20:18.841Z,11.73
2018-07-15T00:22:48.137Z,11.13
2018-07-15T00:25:17.298Z,11.87
2018-07-15T00:27:46.447Z,12.30
2018-07-15T00:30:15.667Z,11.97
2018-07-15T00:32:44.803Z,12.00
2018-07-15T00:35:14.012Z,12.33
2018-07-15T00:37:43.699Z,12.10
2018-07-15T00:40:12.888Z,12.00
2018-07-15T00:42:42.028Z,13.97
2018-07-15T00:45:11.273Z,13.00
2018-07-15T00:47:40.424Z,12.23
2018-07-15T00:50:10.503Z,12.77
2018-07-15T00:52:39.732Z,11.07
2018-07-15T00:55:09.025Z,12.23
2018-07-15T00:57:38.249Z,11.90
2018-07-15T01:00:07.841Z,13.90
2018-07-15T01:02:37.090Z,12.23
2018-07-15T01:05:06.293Z,12.03
2018-07-15T01:07:35.431Z,12.47
2018-07-15T01:10:04.767Z,12.30
2018-07-15T01:12:33.973Z,15.57
2018-07-15T01:15:03.144Z,13.97
2018-07-15T01:17:32.276Z,13.33
2018-07-15T01:20:02.236Z,12.50
2018-07-15T01:22:31.388Z,13.33
2018-07-15T01:25:00.555Z,13.07
2018-07-15T01:27:29.687Z,12.67
2018-07-15T01:29:58.879Z,12.07
2018-07-15T01:32:27.995Z,13.27
2018-07-15T01:34:57.172Z,13.60
2018-07-15T01:37:26.311Z,12.73
2018-07-15T01:39:55.495Z,12.90
2018-07-15T01:42:24.640Z,12.73
2018-07-15T01:44:53.833Z,12.37
2018-07-15T01:47:22.980Z,12.93
2018-07-15T01:49:52.164Z,13.17
2018-07-15T01:52:21.319Z,12.77
2018-07-15T01:54:50.536Z,13.00
2018-07-15T01:57:19.709Z,14.30
2018-07-15T01:59:48.910Z,14.37
2018-07-15T02:02:18.068Z,14.07
2018-07-15T02:04:48.239Z,13.77
2018-07-15T02:07:17.369Z,15.27
2018-07-15T02:09:46.562Z,14.53
2018-07-15T02:12:15.676Z,14.17
2018-07-15T02:14:44.944Z,14.93
2018-07-15T02:17:14.084Z,14.50
2018-07-15T02:19:43.452Z,14.93
2018-07-15T02:22:12.643Z,15.67
2018-07-15T02:24:41.840Z,15.30
2018-07-15T02:27:11.017Z,15.50
2018-07-15T02:29:40.238Z,14.90
2018-07-15T02:32:09.375Z,15.07
2018-07-15T02:34:38.564Z,15.20
2018-07-15T02:37:07.745Z,15.20
2018-07-15T02:39:36.908Z,15.47
2018-07-15T02:42:06.097Z,15.50
2018-07-15T02:44:35.512Z,15.13
2018-07-15T02:47:04.770Z,14.33
2018-07-15T02:49:33.926Z,15.77
2018-07-15T02:52:03.100Z,13.93
2018-07-15T02:54:32.304Z,14.70
2018-07-15T02:57:01.478Z,15.30
2018-07-15T02:59:30.616Z,16.07
2018-07-15T03:01:59.785Z,15.97
2018-07-15T03:04:28.899Z,15.57
2018-07-15T03:06:58.065Z,15.90
2018-07-15T03:09:27.164Z,16.73
2018-07-15T03:11:56.318Z,15.70
2018-07-15T03:14:25.435Z,16.43
2018-07-15T03:16:54.637Z,15.17
2018-07-15T03:19:23.760Z,14.13
2018-07-15T03:21:53.030Z,14.43
2018-07-15T03:24:22.260Z,13.83
2018-07-15T03:26:51.437Z,14.70
2018-07-15T03:29:20.578Z,13.13
2018-07-15T03:31:49.779Z,13.57
2018-07-15T03:34:18.996Z,12.67
2018-07-15T03:36:48.196Z,13.27
2018-07-15T03:39:17.496Z,14.53
2018-07-15T03:41:46.682Z,13.20
2018-07-15T03:44:15.832Z,13.70
2018-07-15T03:46:44.988Z,13.67
2018-07-15T03:49:14.125Z,13.30
2018-07-15T03:51:43.298Z,13.07
2018-07-15T03:54:12.432Z,14.33
2018-07-15T03:56:41.622Z,14.73
2018-07-15T03:59:10.749Z,16.30
2018-07-15T04:01:39.952Z,14.37
2018-07-15T04:04:09.117Z,15.60
2018-07-15T04:06:38.283Z,15.40
2018-07-15T04:09:07.524Z,15.47
2018-07-15T04:11:37.219Z,16.27
2018-07-15T04:14:06.429Z,15.63
2018-07-15T04:16:35.543Z,15.07
2018-07-15T04:19:04.740Z,15.30
2018-07-15T04:21:33.989Z,14.43
2018-07-15T04:24:03.137Z,15.23
2018-07-15T04:26:32.352Z,15.33
2018-07-15T04:29:01.677Z,14.67
2018-07-15T04:31:30.969Z,14.53
2018-07-15T04:34:00.101Z,11.37
2018-07-15T04:36:29.324Z,10.30
2018-07-15T04:38:58.452Z,8.70
2018-07-15T04:41:27.639Z,9.50
2018-07-15T04:43:56.837Z,9.13
2018-07-15T04:46:26.019Z,8.73
2018-07-15T04:48:55.129Z,8.40
2018-07-15T04:51:24.254Z,6.60
2018-07-15T04:53:53.396Z,7.90
2018-07-15T04:56:22.592Z,6.27
2018-07-15T04:58:51.740Z,5.70
2018-07-15T05:01:20.906Z,7.00
2018-07-15T05:03:50.045Z,5.37
2018-07-15T05:06:19.286Z,5.07
2018-07-15T05:08:48.401Z,6.47
2018-07-15T05:11:17.675Z,4.57
2018-07-15T05:13:46.829Z,4.20
2018-07-15T05:16:16.104Z,4.23
2018-07-15T05:18:45.284Z,5.60
2018-07-15T05:21:14.460Z,4.70
2018-07-15T05:23:43.600Z,3.87
2018-07-15T05:26:12.739Z,3.93
2018-07-15T05:28:41.914Z,3.93
2018-07-15T05:31:11.118Z,4.07
2018-07-15T05:33:40.296Z,3.97
2018-07-15T05:36:09.499Z,4.10
2018-07-15T05:38:38.745Z,3.60
2018-07-15T05:41:08.055Z,4.97
2018-07-15T05:43:37.258Z,6.63
2018-07-15T05:46:06.576Z,3.93
2018-07-15T05:48:35.752Z,4.50
2018-07-15T05:51:04.982Z,3.70
2018-07-15T05:53:34.260Z,4.70
2018-07-15T05:56:03.555Z,3.93
2018-07-15T05:58:32.777Z,4.27
2018-07-15T06:01:01.892Z,4.37
2018-07-15T06:03:31.187Z,3.63
2018-07-15T06:06:00.401Z,3.50
2018-07-15T06:08:29.711Z,3.80
2018-07-15T06:10:58.809Z,4.13
2018-07-15T06:13:27.938Z,4.13
2018-07-15T06:15:57.059Z,4.07
2018-07-15T06:18:26.235Z,4.23
2018-07-15T06:20:55.408Z,5.33
2018-07-15T06:23:24.574Z,4.07
2018-07-15T06:25:53.699Z,4.97
2018-07-15T06:28:22.903Z,4.10
2018-07-15T06:30:52.111Z,5.27
2018-07-15T06:33:21.295Z,5.03
2018-07-15T06:35:50.412Z,4.07
2018-07-15T06:38:19.572Z,4.50
2018-07-15T06:40:48.749Z,4.30
2018-07-15T06:43:17.935Z,5.20
2018-07-15T06:45:47.172Z,4.00
2018-07-15T06:48:16.377Z,5.57
2018-07-15T06:50:45.521Z,5.80
2018-07-15T06:53:14.740Z,4.57
2018-07-15T06:55:43.869Z,4.80
2018-07-15T06:58:13.044Z,6.17
2018-07-15T07:00:42.179Z,4.87
2018-07-15T07:03:11.613Z,5.43
2018-07-15T07:05:40.956Z,5.07
2018-07-15T07:08:10.860Z,5.97
2018-07-15T07:10:40.236Z,5.37
2018-07-15T07:13:09.629Z,5.50
2018-07-15T07:15:38.915Z,5.37
2018-07-15T07:18:08.206Z,6.33
2018-07-15T07:20:37.589Z,4.90
2018-07-15T07:23:06.957Z,5.40
2018-07-15T07:25:36.594Z,5.70
2018-07-15T07:28:05.796Z,6.20
2018-07-15T07:30:34.989Z,5.37
2018-07-15T07:33:04.152Z,6.00
2018-07-15T07:35:33.314Z,6.97
2018-07-15T07:38:02.505Z,7.70
2018-07-15T07:40:31.700Z,6.77
2018-07-15T07:43:00.856Z,5.57
2018-07-15T07:45:29.982Z,6.28
2018-07-15T07:47:59.153Z,5.28
2018-07-15T07:50:28.268Z,6.50
2018-07-15T07:52:57.492Z,7.75
2018-07-15T07:55:26.604Z,8.33
2018-07-15T07:57:55.869Z,5.00
2018-07-15T08:00:25.060Z,5.60
2018-07-15T08:02:54.247Z,5.37
2018-07-15T08:05:23.392Z,5.30
2018-07-15T08:07:52.576Z,5.58
2018-07-15T08:10:21.801Z,7.17
2018-07-15T08:12:50.968Z,5.40
2018-07-15T08:15:20.329Z,5.85
2018-07-15T08:17:49.440Z,5.22
2018-07-15T08:20:18.646Z,5.80
2018-07-15T08:22:47.812Z,4.83
2018-07-15T08:25:16.993Z,5.20
2018-07-15T08:27:46.157Z,5.15
2018-07-15T08:30:26.446Z,7.40
2018-07-15T08:32:55.643Z,5.05
2018-07-15T08:35:24.816Z,5.22
2018-07-15T08:37:54.132Z,5.58
2018-07-15T08:40:23.477Z,4.95
2018-07-15T08:42:52.721Z,5.90
2018-07-15T08:45:21.899Z,5.08
2018-07-15T08:47:51.231Z,6.95
2018-07-15T08:50:21.424Z,6.80
2018-07-15T08:52:50.751Z,5.65
2018-07-15T08:55:20.016Z,5.72
2018-07-15T08:57:49.208Z,7.12
2018-07-15T09:00:18.559Z,7.47
2018-07-15T09:02:47.808Z,4.75
2018-07-15T09:05:17.071Z,5.35
2018-07-15T09:07:46.408Z,6.42
2018-07-15T09:10:15.738Z,4.85
2018-07-15T09:12:45.086Z,7.95
2018-07-15T09:15:14.291Z,6.58
2018-07-15T09:17:43.612Z,6.47
2018-07-15T09:20:13.549Z,6.42
2018-07-15T09:22:42.857Z,4.90
2018-07-15T09:25:12.636Z,5.62
2018-07-15T09:27:42.136Z,5.85
2018-07-15T09:30:11.443Z,5.90
2018-07-15T09:32:40.844Z,5.72
2018-07-15T09:35:10.489Z,5.42
2018-07-15T09:37:39.917Z,6.55
2018-07-15T09:40:09.255Z,5.20
2018-07-15T09:42:38.467Z,5.80
2018-07-15T09:45:07.930Z,5.70
2018-07-15T09:47:37.609Z,5.35
2018-07-15T09:50:07.111Z,4.45
2018-07-15T09:52:36.438Z,6.55
2018-07-15T09:55:05.951Z,6.53
2018-07-15T09:57:35.548Z,6.53
2018-07-15T10:00:05.017Z,5.17
2018-07-15T10:02:34.100Z,6.00
2018-07-15T10:05:03.296Z,6.22
2018-07-15T10:07:32.448Z,4.95
2018-07-15T10:10:01.633Z,4.65
2018-07-15T10:12:30.852Z,5.12
2018-07-15T10:15:00.662Z,4.85
2018-07-15T10:17:29.822Z,4.55
2018-07-15T10:19:59.444Z,5.33
2018-07-15T10:22:28.737Z,4.85
2018-07-15T10:24:58.350Z,6.75
2018-07-15T10:27:28.156Z,5.15
2018-07-15T10:29:57.976Z,4.67
2018-07-15T10:32:27.594Z,6.05
2018-07-15T10:34:57.281Z,5.28
2018-07-15T10:37:26.884Z,4.72
2018-07-15T10:39:57.121Z,4.47
2018-07-15T10:42:27.285Z,4.47
2018-07-15T10:44:57.392Z,4.40
2018-07-15T10:47:27.218Z,4.42
2018-07-15T10:49:56.703Z,4.40
2018-07-15T10:52:26.253Z,4.65
2018-07-15T10:54:55.842Z,4.53
2018-07-15T10:57:25.769Z,5.30
2018-07-15T10:59:55.431Z,5.03
2018-07-15T11:02:25.772Z,4.00
2018-07-15T11:04:55.134Z,4.95
2018-07-15T11:07:24.548Z,4.40
2018-07-15T11:09:54.004Z,4.65
2018-07-15T11:12:23.535Z,4.62
2018-07-15T11:14:52.924Z,4.50
2018-07-15T11:17:22.981Z,4.22
2018-07-15T11:19:53.062Z,4.95
2018-07-15T11:22:22.454Z,6.58
2018-07-15T11:24:51.799Z,6.45
2018-07-15T11:27:21.236Z,5.75
2018-07-15T11:29:50.638Z,4.80
2018-07-15T11:32:20.076Z,4.80
2018-07-15T11:34:49.535Z,3.90
2018-07-15T11:37:19.459Z,4.72
2018-07-15T11:39:48.770Z,4.90
2018-07-15T11:42:18.429Z,4.35
2018-07-15T11:44:47.879Z,6.00
2018-07-15T11:47:17.468Z,3.90
2018-07-15T11:49:46.784Z,3.87
2018-07-15T11:52:16.306Z,4.17
2018-07-15T11:54:45.782Z,3.77
2018-07-15T11:57:15.289Z,4.33
2018-07-15T11:59:44.705Z,5.28
2018-07-15T12:02:14.326Z,5.42
2018-07-15T12:04:43.922Z,4.67
2018-07-15T12:07:14.090Z,5.83
2018-07-15T12:09:43.554Z,3.85
2018-07-15T12:12:13.007Z,3.58
2018-07-15T12:14:42.512Z,3.67
2018-07-15T12:17:11.950Z,3.37
2018-07-15T12:19:41.580Z,3.85
2018-07-15T12:22:10.933Z,4.50
2018-07-15T12:24:40.410Z,3.85
2018-07-15T12:27:09.953Z,3.08
2018-07-15T12:29:39.292Z,3.95
2018-07-15T12:32:09.140Z,2.72
2018-07-15T12:34:38.418Z,2.77
2018-07-15T12:37:07.820Z,2.80
2018-07-15T12:39:38.362Z,3.95
2018-07-15T12:42:08.121Z,3.25
2018-07-15T12:44:38.019Z,3.50
2018-07-15T12:47:08.052Z,3.40
2018-07-15T12:49:37.732Z,3.15
2018-07-15T12:52:07.899Z,4.85
2018-07-15T12:54:37.682Z,3.25
2018-07-15T12:57:07.068Z,3.30
2018-07-15T12:59:36.828Z,3.15
2018-07-15T13:02:06.371Z,3.30
2018-07-15T13:04:35.759Z,3.17
2018-07-15T13:07:05.174Z,3.55
2018-07-15T13:09:34.863Z,3.10
2018-07-15T13:12:04.632Z,3.02
2018-07-15T13:14:34.096Z,3.20
2018-07-15T13:17:03.610Z,3.22
2018-07-15T13:19:33.399Z,2.92
2018-07-15T13:22:02.898Z,2.70
2018-07-15T13:24:32.459Z,2.65
2018-07-15T13:27:01.988Z,3.00
2018-07-15T13:29:31.549Z,2.67
2018-07-15T13:32:01.679Z,4.12
2018-07-15T13:34:31.401Z,2.60
2018-07-15T13:37:10.509Z,3.67
2018-07-15T13:39:40.065Z,3.17
2018-07-15T13:42:09.720Z,4.00
2018-07-15T13:44:39.249Z,3.17
2018-07-15T13:47:08.833Z,2.77
2018-07-15T13:49:38.384Z,2.70
2018-07-15T13:52:07.896Z,2.65
2018-07-15T13:54:37.668Z,4.17
2018-07-15T13:57:07.036Z,3.95
2018-07-15T13:59:36.654Z,2.60
2018-07-15T14:02:06.144Z,2.85
2018-07-15T14:04:35.444Z,3.70
2018-07-15T14:07:04.716Z,4.10
2018-07-15T14:09:34.125Z,2.60
2018-07-15T14:12:03.491Z,2.67
2018-07-15T14:14:32.732Z,2.83
2018-07-15T14:17:03.886Z,2.85
2018-07-15T14:19:33.040Z,2.60
2018-07-15T14:22:02.439Z,4.58
2018-07-15T14:24:31.605Z,2.65
2018-07-15T14:27:00.717Z,3.33
2018-07-15T14:29:29.874Z,4.12
2018-07-15T14:31:59.019Z,2.50
2018-07-15T14:34:28.224Z,5.35
2018-07-15T14:36:57.370Z,2.95
2018-07-15T14:39:39.340Z,3.85
2018-07-15T14:42:08.653Z,2.95
2018-07-15T14:44:38.974Z,5.45
2018-07-15T14:47:08.117Z,2.50
2018-07-15T14:49:37.287Z,2.45
2018-07-15T14:52:06.401Z,5.53
2018-07-15T14:54:35.548Z,2.85
2018-07-15T14:57:04.673Z,3.72
2018-07-15T14:59:33.832Z,2.85
2018-07-15T15:02:02.957Z,4.55
2018-07-15T15:04:32.136Z,2.98
2018-07-15T15:07:01.243Z,2.70
2018-07-15T15:09:31.745Z,2.95
2018-07-15T15:12:01.013Z,3.65
2018-07-15T15:14:30.192Z,2.35
2018-07-15T15:16:59.322Z,3.65
2018-07-15T15:19:28.547Z,3.02
2018-07-15T15:21:57.727Z,8.65
2018-07-15T15:24:26.860Z,3.42
2018-07-15T15:26:56.008Z,8.20
2018-07-15T15:29:25.312Z,2.62
2018-07-15T15:31:54.437Z,3.85
2018-07-15T15:34:23.649Z,3.67
2018-07-15T15:36:52.836Z,4.97
2018-07-15T15:39:21.994Z,2.35
2018-07-15T15:41:51.111Z,8.83
2018-07-15T15:44:20.234Z,2.30
2018-07-15T15:46:49.494Z,2.20
2018-07-15T15:49:18.641Z,3.27
2018-07-15T15:51:47.951Z,4.00
2018-07-15T15:54:17.174Z,2.42
2018-07-15T15:56:46.352Z,4.75
2018-07-15T15:59:15.525Z,2.98
2018-07-15T16:01:44.716Z,2.58
2018-07-15T16:04:13.893Z,9.90
2018-07-15T16:06:43.045Z,3.27
2018-07-15T16:09:13.161Z,3.40
2018-07-15T16:11:42.322Z,10.68
2018-07-15T16:14:11.489Z,4.05
2018-07-15T16:16:40.680Z,11.05
2018-07-15T16:19:09.921Z,3.10
2018-07-15T16:21:39.054Z,28.38
2018-07-15T16:24:08.216Z,2.25
2018-07-15T16:26:37.376Z,3.92
2018-07-15T16:29:06.514Z,6.08
2018-07-15T16:31:35.660Z,3.83
2018-07-15T16:34:04.835Z,3.02
2018-07-15T16:36:34.075Z,2.30
2018-07-15T16:39:03.323Z,4.58
2018-07-15T16:41:32.581Z,6.12
2018-07-15T16:44:01.706Z,3.90
2018-07-15T16:46:30.879Z,4.75
2018-07-15T16:49:00.736Z,2.52
2018-07-15T16:51:30.008Z,9.85
2018-07-15T16:53:59.120Z,3.22
2018-07-15T16:56:28.283Z,7.28
2018-07-15T16:58:57.408Z,3.60
2018-07-15T17:01:26.634Z,4.42
2018-07-15T17:03:55.792Z,4.12
2018-07-15T17:06:24.956Z,3.45
2018-07-15T17:08:54.092Z,2.55
2018-07-15T17:11:23.240Z,6.72
2018-07-15T17:13:52.426Z,2.40
2018-07-15T17:16:21.626Z,3.50
2018-07-15T17:18:50.811Z,2.20
2018-07-15T17:21:20.001Z,3.33
2018-07-15T17:23:49.157Z,2.55
2018-07-15T17:26:18.323Z,4.75
2018-07-15T17:28:47.453Z,2.00
2018-07-15T17:31:16.602Z,3.12
2018-07-15T17:33:45.817Z,2.83
2018-07-15T17:36:14.960Z,3.40
2018-07-15T17:38:44.113Z,4.60
2018-07-15T17:41:14.244Z,3.20
2018-07-15T17:46:21.617Z,4.75
2018-07-15T17:48:51.707Z,3.33
2018-07-15T17:51:20.914Z,4.22
2018-07-15T17:53:51.168Z,3.10
2018-07-15T17:56:20.388Z,2.77
2018-07-15T17:58:49.652Z,3.12
2018-07-15T18:01:19.861Z,2.67
2018-07-15T18:03:49.286Z,2.98
2018-07-15T18:06:19.276Z,2.55
2018-07-15T18:08:48.635Z,2.35
2018-07-15T18:11:18.264Z,2.98
2018-07-15T18:13:47.546Z,3.20
2018-07-15T18:16:16.876Z,2.85
2018-07-15T18:18:46.303Z,1.85
2018-07-15T18:21:15.595Z,3.40
2018-07-15T18:23:44.935Z,2.83
2018-07-15T18:26:14.224Z,3.17
2018-07-15T18:28:43.769Z,2.90
2018-07-15T18:31:13.032Z,4.45
2018-07-15T18:33:43.328Z,3.17
2018-07-15T18:36:12.910Z,5.10
2018-07-15T18:38:42.173Z,3.75
2018-07-15T18:41:11.582Z,2.52
2018-07-15T18:43:40.944Z,4.20
2018-07-15T18:46:10.213Z,2.45
2018-07-15T18:48:39.745Z,2.87
2018-07-15T18:51:08.951Z,2.58
2018-07-15T18:53:38.552Z,2.45
2018-07-15T18:56:07.831Z,5.83
2018-07-15T18:58:37.100Z,5.20
2018-07-15T19:01:06.432Z,3.62
2018-07-15T19:03:35.704Z,6.10
2018-07-15T19:06:05.111Z,8.48
2018-07-15T19:08:34.337Z,5.78
2018-07-15T19:11:03.518Z,2.85
2018-07-15T19:13:32.819Z,4.17
2018-07-15T19:16:02.106Z,4.45
2018-07-15T19:18:31.476Z,2.72
2018-07-15T19:21:00.795Z,3.02
2018-07-15T19:23:30.113Z,8.00
2018-07-15T19:25:59.405Z,2.98
2018-07-15T19:28:29.097Z,4.00
2018-07-15T19:31:01.579Z,3.27
2018-07-15T19:33:30.988Z,3.77
2018-07-15T19:36:00.456Z,2.98
2018-07-15T19:38:29.855Z,3.95
2018-07-15T19:40:59.100Z,3.17
2018-07-15T19:43:28.566Z,3.40
2018-07-15T19:45:57.804Z,5.62
2018-07-15T19:48:27.144Z,3.55
2018-07-15T19:50:56.341Z,2.83
2018-07-15T19:53:25.685Z,3.25
2018-07-15T19:55:55.137Z,3.58
2018-07-15T19:58:24.537Z,2.60
2018-07-15T20:00:53.720Z,5.00
2018-07-15T20:03:23.049Z,2.37
2018-07-15T20:05:53.168Z,3.17
2018-07-15T20:08:22.464Z,3.33
2018-07-15T20:10:51.755Z,2.67
2018-07-15T20:13:21.068Z,4.92
2018-07-15T20:15:50.204Z,3.83
2018-07-15T20:18:19.480Z,2.52
2018-07-15T20:20:48.809Z,4.25
2018-07-15T20:23:18.285Z,2.83
2018-07-15T20:25:47.425Z,4.60
2018-07-15T20:28:17.199Z,2.92
2018-07-15T20:30:46.484Z,2.15
2018-07-15T20:33:15.861Z,4.45
2018-07-15T20:35:45.065Z,2.15
2018-07-15T20:38:14.693Z,5.42
2018-07-15T20:40:44.073Z,1.65
2018-07-15T20:43:13.240Z,2.47
2018-07-15T20:45:42.367Z,1.75
2018-07-15T20:48:11.517Z,4.67
2018-07-15T20:50:40.889Z,3.77
2018-07-15T20:53:10.792Z,6.15
2018-07-15T20:55:40.086Z,6.65
2018-07-15T20:58:09.296Z,5.42
2018-07-15T21:00:38.588Z,4.28
2018-07-15T21:03:07.812Z,5.17
2018-07-15T21:05:37.084Z,9.38
2018-07-15T21:08:06.341Z,4.45
2018-07-15T21:10:36.593Z,4.17
2018-07-15T21:13:06.050Z,1.80
2018-07-15T21:15:35.273Z,1.90
2018-07-15T21:18:04.473Z,2.45
2018-07-15T21:20:33.714Z,3.95
2018-07-15T21:23:03.104Z,2.50
2018-07-15T21:25:32.464Z,3.40
2018-07-15T21:28:01.703Z,1.90
2018-07-15T21:30:31.033Z,7.50
2018-07-15T21:33:00.172Z,1.60
2018-07-15T21:35:29.374Z,6.03
2018-07-15T21:37:58.609Z,2.20
2018-07-15T21:40:27.784Z,5.03
2018-07-15T21:42:57.021Z,2.93
2018-07-15T21:45:26.189Z,3.93
2018-07-15T21:47:56.284Z,3.80
2018-07-15T21:50:25.461Z,3.93
2018-07-15T21:52:54.590Z,3.77
2018-07-15T21:55:23.785Z,2.73
2018-07-15T21:57:53.393Z,3.27
2018-07-15T22:00:23.110Z,4.23
2018-07-15T22:02:52.415Z,5.93
2018-07-15T22:05:21.592Z,3.43
2018-07-15T22:08:02.259Z,1.80
2018-07-15T22:10:40.596Z,4.33
2018-07-15T22:13:09.817Z,3.00
2018-07-15T22:15:39.116Z,3.77
2018-07-15T22:18:08.320Z,6.53
2018-07-15T22:20:37.992Z,3.13
2018-07-15T22:23:07.968Z,4.23
2018-07-15T22:25:37.208Z,6.03
2018-07-15T22:28:06.432Z,2.87
2018-07-15T22:30:35.891Z,1.50
2018-07-15T22:33:05.076Z,3.23
2018-07-15T22:35:34.268Z,2.93
2018-07-15T22:38:03.533Z,5.67
2018-07-15T22:40:32.890Z,1.63
2018-07-15T22:43:02.120Z,5.00
2018-07-15T22:45:31.396Z,5.50
2018-07-15T22:48:00.633Z,2.43
2018-07-15T22:50:29.861Z,4.70
2018-07-15T22:52:59.186Z,2.63
2018-07-15T22:55:28.477Z,4.43
2018-07-15T22:57:57.626Z,2.40
2018-07-15T23:00:26.870Z,2.70
2018-07-15T23:02:56.273Z,2.67
2018-07-15T23:05:38.591Z,2.83
2018-07-15T23:08:08.183Z,4.43
2018-07-15T23:10:37.535Z,2.50
2018-07-15T23:13:07.766Z,5.23
2018-07-15T23:15:37.723Z,1.83
2018-07-15T23:18:07.197Z,3.53
2018-07-15T23:20:37.551Z,2.70
2018-07-15T23:23:07.886Z,3.63
2018-07-15T23:25:37.207Z,1.40
2018-07-15T23:28:07.305Z,3.20
2018-07-15T23:30:37.306Z,1.83
2018-07-15T23:33:07.100Z,2.23
2018-07-15T23:35:36.377Z,1.17
2018-07-15T23:38:05.672Z,3.40
2018-07-15T23:40:35.033Z,2.97
2018-07-15T23:43:04.503Z,4.73
2018-07-15T23:45:34.660Z,2.90
2018-07-15T23:48:04.044Z,5.37
2018-07-15T23:50:33.439Z,4.23
2018-07-15T23:53:02.728Z,2.43
2018-07-15T23:55:31.985Z,4.00
2018-07-15T23:58:01.334Z,4.17
